sensor_id;sensor_type;location;lat;lon;timestamp;temperature;humidity
14877;DHT22;69691;48.172;17.070;2023-07-20T00:01:25;24.00;59.40
14877;DHT22;69691;48.172;17.070;2023-07-20T00:03:50;24.00;59.40
14877;DHT22;69691;48.172;17.070;2023-07-20T00:06:28;24.00;59.50
14877;DHT22;69691;48.172;17.070;2023-07-20T00:08:54;24.00;59.70
14877;DHT22;69691;48.172;17.070;2023-07-20T00:11:25;24.00;60.40
14877;DHT22;69691;48.172;17.070;2023-07-20T00:13:52;24.00;59.80
14877;DHT22;69691;48.172;17.070;2023-07-20T00:16:18;23.90;59.90
14877;DHT22;69691;48.172;17.070;2023-07-20T00:18:44;23.90;60.10
14877;DHT22;69691;48.172;17.070;2023-07-20T00:21:09;23.90;60.40
14877;DHT22;69691;48.172;17.070;2023-07-20T00:23:36;23.90;60.50
14877;DHT22;69691;48.172;17.070;2023-07-20T00:26:01;23.80;60.60
14877;DHT22;69691;48.172;17.070;2023-07-20T00:28:27;23.80;61.60
14877;DHT22;69691;48.172;17.070;2023-07-20T00:30:53;23.70;60.90
14877;DHT22;69691;48.172;17.070;2023-07-20T00:33:19;23.70;61.00
14877;DHT22;69691;48.172;17.070;2023-07-20T00:35:45;23.70;61.20
14877;DHT22;69691;48.172;17.070;2023-07-20T00:38:11;23.60;62.10
14877;DHT22;69691;48.172;17.070;2023-07-20T00:40:41;23.60;61.50
14877;DHT22;69691;48.172;17.070;2023-07-20T00:43:07;23.60;61.80
14877;DHT22;69691;48.172;17.070;2023-07-20T00:45:34;23.60;61.80
14877;DHT22;69691;48.172;17.070;2023-07-20T00:48:03;23.60;62.00
14877;DHT22;69691;48.172;17.070;2023-07-20T00:50:31;23.50;62.00
14877;DHT22;69691;48.172;17.070;2023-07-20T00:52:57;23.50;62.20
14877;DHT22;69691;48.172;17.070;2023-07-20T00:55:24;23.50;62.20
14877;DHT22;69691;48.172;17.070;2023-07-20T00:57:52;23.50;62.30
14877;DHT22;69691;48.172;17.070;2023-07-20T01:00:18;23.50;62.30
14877;DHT22;69691;48.172;17.070;2023-07-20T01:02:45;23.50;62.30
14877;DHT22;69691;48.172;17.070;2023-07-20T01:05:11;23.50;62.30
14877;DHT22;69691;48.172;17.070;2023-07-20T01:07:57;23.50;62.50
14877;DHT22;69691;48.172;17.070;2023-07-20T01:10:33;23.50;62.80
14877;DHT22;69691;48.172;17.070;2023-07-20T01:13:07;23.40;62.60
14877;DHT22;69691;48.172;17.070;2023-07-20T01:15:36;23.40;62.70
14877;DHT22;69691;48.172;17.070;2023-07-20T01:18:02;23.40;62.80
14877;DHT22;69691;48.172;17.070;2023-07-20T01:20:32;23.40;62.90
14877;DHT22;69691;48.172;17.070;2023-07-20T01:29:35;23.30;63.60
14877;DHT22;69691;48.172;17.070;2023-07-20T01:32:08;23.30;63.60
14877;DHT22;69691;48.172;17.070;2023-07-20T01:34:36;23.20;63.70
14877;DHT22;69691;48.172;17.070;2023-07-20T01:37:03;23.20;63.80
14877;DHT22;69691;48.172;17.070;2023-07-20T01:39:30;23.20;63.80
14877;DHT22;69691;48.172;17.070;2023-07-20T01:41:57;23.20;64.10
14877;DHT22;69691;48.172;17.070;2023-07-20T01:44:24;23.20;64.20
14877;DHT22;69691;48.172;17.070;2023-07-20T01:46:49;23.20;64.40
14877;DHT22;69691;48.172;17.070;2023-07-20T01:49:15;23.20;64.60
14877;DHT22;69691;48.172;17.070;2023-07-20T01:51:41;23.20;64.50
14877;DHT22;69691;48.172;17.070;2023-07-20T01:54:07;23.20;64.40
14877;DHT22;69691;48.172;17.070;2023-07-20T01:56:35;23.30;64.40
14877;DHT22;69691;48.172;17.070;2023-07-20T01:59:01;23.30;64.30
14877;DHT22;69691;48.172;17.070;2023-07-20T02:01:27;23.30;64.30
14877;DHT22;69691;48.172;17.070;2023-07-20T02:03:54;23.30;64.20
14877;DHT22;69691;48.172;17.070;2023-07-20T02:06:20;23.40;64.10
14877;DHT22;69691;48.172;17.070;2023-07-20T02:08:48;23.40;63.90
14877;DHT22;69691;48.172;17.070;2023-07-20T02:11:14;23.50;64.00
14877;DHT22;69691;48.172;17.070;2023-07-20T02:13:39;23.50;63.80
14877;DHT22;69691;48.172;17.070;2023-07-20T02:16:05;23.60;63.60
14877;DHT22;69691;48.172;17.070;2023-07-20T02:18:31;23.60;63.30
14877;DHT22;69691;48.172;17.070;2023-07-20T02:20:57;23.60;63.30
14877;DHT22;69691;48.172;17.070;2023-07-20T02:23:23;23.60;63.10
14877;DHT22;69691;48.172;17.070;2023-07-20T02:25:49;23.60;62.80
14877;DHT22;69691;48.172;17.070;2023-07-20T02:28:15;23.70;62.60
14877;DHT22;69691;48.172;17.070;2023-07-20T02:30:41;23.70;62.00
14877;DHT22;69691;48.172;17.070;2023-07-20T02:33:07;23.70;61.90
14877;DHT22;69691;48.172;17.070;2023-07-20T02:35:33;23.80;61.70
14877;DHT22;69691;48.172;17.070;2023-07-20T02:37:59;23.80;61.10
14877;DHT22;69691;48.172;17.070;2023-07-20T02:40:25;23.90;61.40
14877;DHT22;69691;48.172;17.070;2023-07-20T02:42:50;23.90;60.90
14877;DHT22;69691;48.172;17.070;2023-07-20T02:45:16;23.90;60.80
14877;DHT22;69691;48.172;17.070;2023-07-20T02:47:42;23.90;60.60
14877;DHT22;69691;48.172;17.070;2023-07-20T02:50:08;23.90;60.10
14877;DHT22;69691;48.172;17.070;2023-07-20T02:52:34;24.00;60.00
14877;DHT22;69691;48.172;17.070;2023-07-20T02:55:00;24.00;59.90
14877;DHT22;69691;48.172;17.070;2023-07-20T02:57:26;24.00;59.80
14877;DHT22;69691;48.172;17.070;2023-07-20T02:59:52;24.00;60.50
14877;DHT22;69691;48.172;17.070;2023-07-20T03:02:19;24.00;59.90
14877;DHT22;69691;48.172;17.070;2023-07-20T03:04:45;24.00;59.90
14877;DHT22;69691;48.172;17.070;2023-07-20T03:07:11;24.00;59.80
14877;DHT22;69691;48.172;17.070;2023-07-20T03:09:37;24.00;60.00
14877;DHT22;69691;48.172;17.070;2023-07-20T03:12:03;23.90;60.00
14877;DHT22;69691;48.172;17.070;2023-07-20T03:14:30;23.90;60.00
14877;DHT22;69691;48.172;17.070;2023-07-20T03:16:57;23.90;60.00
14877;DHT22;69691;48.172;17.070;2023-07-20T03:19:23;23.90;61.00
14877;DHT22;69691;48.172;17.070;2023-07-20T03:21:49;23.90;60.30
14877;DHT22;69691;48.172;17.070;2023-07-20T03:24:16;23.90;60.40
14877;DHT22;69691;48.172;17.070;2023-07-20T03:26:42;23.90;60.60
14877;DHT22;69691;48.172;17.070;2023-07-20T03:29:08;23.90;60.60
14877;DHT22;69691;48.172;17.070;2023-07-20T03:31:34;23.90;60.60
14877;DHT22;69691;48.172;17.070;2023-07-20T03:34:00;23.90;60.80
14877;DHT22;69691;48.172;17.070;2023-07-20T03:36:25;23.90;60.90
14877;DHT22;69691;48.172;17.070;2023-07-20T03:38:51;23.90;60.90
14877;DHT22;69691;48.172;17.070;2023-07-20T03:41:17;23.90;60.90
14877;DHT22;69691;48.172;17.070;2023-07-20T03:43:45;23.90;60.90
14877;DHT22;69691;48.172;17.070;2023-07-20T03:46:11;23.90;61.00
14877;DHT22;69691;48.172;17.070;2023-07-20T03:48:38;23.90;61.00
14877;DHT22;69691;48.172;17.070;2023-07-20T03:51:04;23.90;61.00
14877;DHT22;69691;48.172;17.070;2023-07-20T03:53:30;23.90;61.00
14877;DHT22;69691;48.172;17.070;2023-07-20T03:55:55;23.90;60.90
14877;DHT22;69691;48.172;17.070;2023-07-20T03:58:21;24.00;60.70
14877;DHT22;69691;48.172;17.070;2023-07-20T04:00:51;23.90;61.30
14877;DHT22;69691;48.172;17.070;2023-07-20T04:03:19;24.00;60.50
14877;DHT22;69691;48.172;17.070;2023-07-20T04:05:46;24.00;60.30
14877;DHT22;69691;48.172;17.070;2023-07-20T04:08:12;24.10;60.20
14877;DHT22;69691;48.172;17.070;2023-07-20T04:10:38;24.10;60.10
14877;DHT22;69691;48.172;17.070;2023-07-20T04:13:05;24.10;60.10
14877;DHT22;69691;48.172;17.070;2023-07-20T04:15:31;24.10;60.10
14877;DHT22;69691;48.172;17.070;2023-07-20T04:17:57;24.20;60.00
14877;DHT22;69691;48.172;17.070;2023-07-20T04:20:23;24.20;59.80
14877;DHT22;69691;48.172;17.070;2023-07-20T04:22:49;24.30;59.60
14877;DHT22;69691;48.172;17.070;2023-07-20T04:25:17;24.30;59.20
14877;DHT22;69691;48.172;17.070;2023-07-20T04:27:46;24.30;59.70
14877;DHT22;69691;48.172;17.070;2023-07-20T04:30:12;24.40;59.00
14877;DHT22;69691;48.172;17.070;2023-07-20T04:32:39;24.40;58.80
14877;DHT22;69691;48.172;17.070;2023-07-20T04:35:21;24.50;58.80
14877;DHT22;69691;48.172;17.070;2023-07-20T04:38:20;24.60;58.70
14877;DHT22;69691;48.172;17.070;2023-07-20T04:40:50;24.70;58.40
14877;DHT22;69691;48.172;17.070;2023-07-20T04:43:17;24.70;58.30
14877;DHT22;69691;48.172;17.070;2023-07-20T04:45:44;24.80;58.10
14877;DHT22;69691;48.172;17.070;2023-07-20T04:48:12;24.90;57.90
14877;DHT22;69691;48.172;17.070;2023-07-20T04:50:46;24.90;57.60
14877;DHT22;69691;48.172;17.070;2023-07-20T04:53:12;24.90;57.50
14877;DHT22;69691;48.172;17.070;2023-07-20T04:55:39;24.90;57.50
14877;DHT22;69691;48.172;17.070;2023-07-20T04:58:07;25.00;57.50
14877;DHT22;69691;48.172;17.070;2023-07-20T05:00:38;25.00;57.40
14877;DHT22;69691;48.172;17.070;2023-07-20T05:03:05;25.00;57.30
14877;DHT22;69691;48.172;17.070;2023-07-20T05:05:31;25.10;57.30
14877;DHT22;69691;48.172;17.070;2023-07-20T05:07:57;25.10;57.20
14877;DHT22;69691;48.172;17.070;2023-07-20T05:10:24;25.10;57.00
14877;DHT22;69691;48.172;17.070;2023-07-20T05:12:49;25.20;57.00
14877;DHT22;69691;48.172;17.070;2023-07-20T05:15:15;25.20;56.80
14877;DHT22;69691;48.172;17.070;2023-07-20T05:17:42;25.20;56.80
14877;DHT22;69691;48.172;17.070;2023-07-20T05:20:08;25.30;56.60
14877;DHT22;69691;48.172;17.070;2023-07-20T05:22:38;25.30;56.40
14877;DHT22;69691;48.172;17.070;2023-07-20T05:25:07;25.30;56.30
14877;DHT22;69691;48.172;17.070;2023-07-20T05:27:38;25.30;56.20
14877;DHT22;69691;48.172;17.070;2023-07-20T05:30:05;25.30;56.20
14877;DHT22;69691;48.172;17.070;2023-07-20T05:32:33;25.30;56.20
14877;DHT22;69691;48.172;17.070;2023-07-20T05:34:59;25.40;56.10
14877;DHT22;69691;48.172;17.070;2023-07-20T05:37:25;25.40;56.00
14877;DHT22;69691;48.172;17.070;2023-07-20T05:39:51;25.50;55.50
14877;DHT22;69691;48.172;17.070;2023-07-20T05:42:17;25.70;55.20
14877;DHT22;69691;48.172;17.070;2023-07-20T05:44:43;25.80;54.90
14877;DHT22;69691;48.172;17.070;2023-07-20T05:47:09;25.80;54.60
14877;DHT22;69691;48.172;17.070;2023-07-20T05:49:35;25.90;54.40
14877;DHT22;69691;48.172;17.070;2023-07-20T05:52:01;25.90;54.30
14877;DHT22;69691;48.172;17.070;2023-07-20T05:54:27;25.90;54.40
14877;DHT22;69691;48.172;17.070;2023-07-20T05:56:54;25.90;54.50
14877;DHT22;69691;48.172;17.070;2023-07-20T05:59:20;25.90;54.50
14877;DHT22;69691;48.172;17.070;2023-07-20T06:01:46;26.00;55.10
14877;DHT22;69691;48.172;17.070;2023-07-20T06:04:15;26.00;54.10
14877;DHT22;69691;48.172;17.070;2023-07-20T06:06:41;26.00;53.90
14877;DHT22;69691;48.172;17.070;2023-07-20T06:09:07;26.00;54.50
14877;DHT22;69691;48.172;17.070;2023-07-20T06:11:38;26.00;53.80
14877;DHT22;69691;48.172;17.070;2023-07-20T06:14:04;26.10;53.70
14877;DHT22;69691;48.172;17.070;2023-07-20T06:16:30;26.20;53.30
14877;DHT22;69691;48.172;17.070;2023-07-20T06:18:56;26.30;53.20
14877;DHT22;69691;48.172;17.070;2023-07-20T06:21:22;26.50;53.40
14877;DHT22;69691;48.172;17.070;2023-07-20T06:23:48;26.70;52.60
14877;DHT22;69691;48.172;17.070;2023-07-20T06:26:14;26.90;51.80
14877;DHT22;69691;48.172;17.070;2023-07-20T06:28:41;27.10;51.30
14877;DHT22;69691;48.172;17.070;2023-07-20T06:31:07;27.40;50.80
14877;DHT22;69691;48.172;17.070;2023-07-20T06:33:33;27.70;50.10
14877;DHT22;69691;48.172;17.070;2023-07-20T06:36:00;28.00;49.40
14877;DHT22;69691;48.172;17.070;2023-07-20T06:38:26;28.20;47.90
14877;DHT22;69691;48.172;17.070;2023-07-20T06:40:52;28.50;47.10
14877;DHT22;69691;48.172;17.070;2023-07-20T06:43:18;28.70;46.70
14877;DHT22;69691;48.172;17.070;2023-07-20T06:45:44;28.90;46.30
14877;DHT22;69691;48.172;17.070;2023-07-20T06:48:11;29.10;45.30
14877;DHT22;69691;48.172;17.070;2023-07-20T06:50:37;29.10;45.00
14877;DHT22;69691;48.172;17.070;2023-07-20T06:53:03;29.00;44.70
14877;DHT22;69691;48.172;17.070;2023-07-20T06:55:29;29.00;44.70
14877;DHT22;69691;48.172;17.070;2023-07-20T06:57:55;29.00;45.00
14877;DHT22;69691;48.172;17.070;2023-07-20T07:00:21;29.10;44.90
14877;DHT22;69691;48.172;17.070;2023-07-20T07:02:47;29.20;44.40
14877;DHT22;69691;48.172;17.070;2023-07-20T07:05:13;29.30;44.00
14877;DHT22;69691;48.172;17.070;2023-07-20T07:07:41;29.30;43.50
14877;DHT22;69691;48.172;17.070;2023-07-20T07:10:07;29.40;43.30
14877;DHT22;69691;48.172;17.070;2023-07-20T07:12:34;29.50;43.50
14877;DHT22;69691;48.172;17.070;2023-07-20T07:15:02;29.60;43.30
14877;DHT22;69691;48.172;17.070;2023-07-20T07:17:29;29.70;43.30
14877;DHT22;69691;48.172;17.070;2023-07-20T07:19:55;29.80;42.20
14877;DHT22;69691;48.172;17.070;2023-07-20T07:22:22;29.90;42.20
14877;DHT22;69691;48.172;17.070;2023-07-20T07:24:48;30.10;41.90
14877;DHT22;69691;48.172;17.070;2023-07-20T07:27:13;30.10;41.50
14877;DHT22;69691;48.172;17.070;2023-07-20T07:29:42;30.20;41.30
14877;DHT22;69691;48.172;17.070;2023-07-20T07:32:12;30.20;40.50
14877;DHT22;69691;48.172;17.070;2023-07-20T07:34:38;30.20;40.80
14877;DHT22;69691;48.172;17.070;2023-07-20T07:37:05;30.20;40.80
14877;DHT22;69691;48.172;17.070;2023-07-20T07:39:31;30.30;40.70
14877;DHT22;69691;48.172;17.070;2023-07-20T07:41:57;30.30;40.50
14877;DHT22;69691;48.172;17.070;2023-07-20T07:44:23;30.30;40.50
14877;DHT22;69691;48.172;17.070;2023-07-20T07:46:50;30.20;40.90
14877;DHT22;69691;48.172;17.070;2023-07-20T07:49:16;30.30;40.90
14877;DHT22;69691;48.172;17.070;2023-07-20T07:51:44;30.40;40.70
14877;DHT22;69691;48.172;17.070;2023-07-20T07:54:09;30.30;40.90
14877;DHT22;69691;48.172;17.070;2023-07-20T07:56:35;30.30;41.10
14877;DHT22;69691;48.172;17.070;2023-07-20T07:59:01;30.30;41.00
14877;DHT22;69691;48.172;17.070;2023-07-20T08:01:28;30.30;41.60
14877;DHT22;69691;48.172;17.070;2023-07-20T08:03:55;30.30;41.20
14877;DHT22;69691;48.172;17.070;2023-07-20T08:06:21;30.30;41.20
14877;DHT22;69691;48.172;17.070;2023-07-20T08:08:49;30.30;40.90
14877;DHT22;69691;48.172;17.070;2023-07-20T08:11:15;30.30;41.10
14877;DHT22;69691;48.172;17.070;2023-07-20T08:13:43;30.40;41.50
14877;DHT22;69691;48.172;17.070;2023-07-20T08:16:10;30.30;40.70
14877;DHT22;69691;48.172;17.070;2023-07-20T08:18:36;30.30;40.70
14877;DHT22;69691;48.172;17.070;2023-07-20T08:21:02;30.30;40.80
14877;DHT22;69691;48.172;17.070;2023-07-20T08:23:29;30.30;40.30
14877;DHT22;69691;48.172;17.070;2023-07-20T08:25:54;30.20;40.50
14877;DHT22;69691;48.172;17.070;2023-07-20T08:28:20;30.20;40.60
14877;DHT22;69691;48.172;17.070;2023-07-20T08:30:48;30.20;40.40
14877;DHT22;69691;48.172;17.070;2023-07-20T08:33:17;30.20;40.50
14877;DHT22;69691;48.172;17.070;2023-07-20T08:35:45;30.20;40.40
14877;DHT22;69691;48.172;17.070;2023-07-20T08:38:11;30.20;40.40
14877;DHT22;69691;48.172;17.070;2023-07-20T08:40:42;30.20;40.40
14877;DHT22;69691;48.172;17.070;2023-07-20T08:43:10;30.20;40.50
14877;DHT22;69691;48.172;17.070;2023-07-20T08:45:40;30.20;40.60
14877;DHT22;69691;48.172;17.070;2023-07-20T08:48:07;30.20;40.60
14877;DHT22;69691;48.172;17.070;2023-07-20T08:50:34;30.20;40.90
14877;DHT22;69691;48.172;17.070;2023-07-20T08:53:02;30.10;40.90
14877;DHT22;69691;48.172;17.070;2023-07-20T08:55:29;30.10;40.90
14877;DHT22;69691;48.172;17.070;2023-07-20T08:57:57;30.00;41.10
14877;DHT22;69691;48.172;17.070;2023-07-20T09:00:25;30.00;41.00
14877;DHT22;69691;48.172;17.070;2023-07-20T09:02:55;29.90;41.10
14877;DHT22;69691;48.172;17.070;2023-07-20T09:05:24;29.80;41.30
14877;DHT22;69691;48.172;17.070;2023-07-20T09:07:52;29.70;41.50
14877;DHT22;69691;48.172;17.070;2023-07-20T09:10:21;29.60;42.40
14877;DHT22;69691;48.172;17.070;2023-07-20T09:12:47;29.50;41.90
14877;DHT22;69691;48.172;17.070;2023-07-20T09:15:14;29.60;41.80
14877;DHT22;69691;48.172;17.070;2023-07-20T09:17:49;29.50;41.80
14877;DHT22;69691;48.172;17.070;2023-07-20T09:20:19;29.60;41.70
14877;DHT22;69691;48.172;17.070;2023-07-20T09:22:45;29.70;41.20
14877;DHT22;69691;48.172;17.070;2023-07-20T09:25:17;29.80;41.30
14877;DHT22;69691;48.172;17.070;2023-07-20T09:27:49;30.20;40.40
14877;DHT22;69691;48.172;17.070;2023-07-20T09:30:16;30.40;39.90
14877;DHT22;69691;48.172;17.070;2023-07-20T09:32:44;30.60;39.50
14877;DHT22;69691;48.172;17.070;2023-07-20T09:35:19;30.80;39.50
14877;DHT22;69691;48.172;17.070;2023-07-20T09:37:59;31.00;38.90
14877;DHT22;69691;48.172;17.070;2023-07-20T09:40:26;31.20;38.80
14877;DHT22;69691;48.172;17.070;2023-07-20T09:42:53;31.40;38.70
14877;DHT22;69691;48.172;17.070;2023-07-20T09:45:35;31.40;38.00
14877;DHT22;69691;48.172;17.070;2023-07-20T09:48:06;31.50;38.10
14877;DHT22;69691;48.172;17.070;2023-07-20T09:50:33;31.40;38.30
14877;DHT22;69691;48.172;17.070;2023-07-20T09:53:01;31.40;38.30
14877;DHT22;69691;48.172;17.070;2023-07-20T09:55:29;31.40;38.40
14877;DHT22;69691;48.172;17.070;2023-07-20T09:57:56;31.40;38.10
14877;DHT22;69691;48.172;17.070;2023-07-20T10:00:22;31.30;38.50
14877;DHT22;69691;48.172;17.070;2023-07-20T10:02:51;31.30;38.70
14877;DHT22;69691;48.172;17.070;2023-07-20T10:05:18;31.10;39.00
14877;DHT22;69691;48.172;17.070;2023-07-20T10:07:47;31.10;38.80
14877;DHT22;69691;48.172;17.070;2023-07-20T10:10:15;31.10;39.10
14877;DHT22;69691;48.172;17.070;2023-07-20T10:12:49;31.30;38.90
14877;DHT22;69691;48.172;17.070;2023-07-20T10:18:09;31.80;38.00
14877;DHT22;69691;48.172;17.070;2023-07-20T10:20:40;32.00;38.00
14877;DHT22;69691;48.172;17.070;2023-07-20T10:23:07;32.20;38.10
14877;DHT22;69691;48.172;17.070;2023-07-20T10:25:33;32.30;38.10
14877;DHT22;69691;48.172;17.070;2023-07-20T10:28:05;32.40;39.20
14877;DHT22;69691;48.172;17.070;2023-07-20T10:30:35;32.50;38.60
14877;DHT22;69691;48.172;17.070;2023-07-20T10:33:05;32.50;38.30
14877;DHT22;69691;48.172;17.070;2023-07-20T10:35:54;32.50;37.70
14877;DHT22;69691;48.172;17.070;2023-07-20T10:38:42;32.50;38.10
14877;DHT22;69691;48.172;17.070;2023-07-20T10:43:44;32.30;38.90
14877;DHT22;69691;48.172;17.070;2023-07-20T10:46:12;32.30;39.00
14877;DHT22;69691;48.172;17.070;2023-07-20T10:48:59;32.20;39.20
14877;DHT22;69691;48.172;17.070;2023-07-20T10:51:26;32.20;39.10
14877;DHT22;69691;48.172;17.070;2023-07-20T10:53:52;32.00;38.80
14877;DHT22;69691;48.172;17.070;2023-07-20T10:56:21;32.00;39.10
14877;DHT22;69691;48.172;17.070;2023-07-20T10:58:49;31.90;38.90
14877;DHT22;69691;48.172;17.070;2023-07-20T11:01:17;32.00;39.00
14877;DHT22;69691;48.172;17.070;2023-07-20T11:03:43;31.80;39.10
14877;DHT22;69691;48.172;17.070;2023-07-20T11:09:04;31.70;39.30
14877;DHT22;69691;48.172;17.070;2023-07-20T11:11:33;31.80;38.80
14877;DHT22;69691;48.172;17.070;2023-07-20T11:14:06;31.90;38.30
14877;DHT22;69691;48.172;17.070;2023-07-20T11:16:43;32.30;38.40
14877;DHT22;69691;48.172;17.070;2023-07-20T11:19:20;32.50;38.00
14877;DHT22;69691;48.172;17.070;2023-07-20T11:21:53;32.60;37.60
14877;DHT22;69691;48.172;17.070;2023-07-20T11:24:20;32.70;37.60
14877;DHT22;69691;48.172;17.070;2023-07-20T11:26:53;32.90;37.00
14877;DHT22;69691;48.172;17.070;2023-07-20T11:29:22;32.90;36.80
14877;DHT22;69691;48.172;17.070;2023-07-20T11:31:49;32.70;37.10
14877;DHT22;69691;48.172;17.070;2023-07-20T11:34:20;32.30;37.70
14877;DHT22;69691;48.172;17.070;2023-07-20T11:36:48;32.20;38.30
14877;DHT22;69691;48.172;17.070;2023-07-20T11:39:16;32.10;38.80
14877;DHT22;69691;48.172;17.070;2023-07-20T11:41:54;31.80;39.20
14877;DHT22;69691;48.172;17.070;2023-07-20T11:44:22;31.60;39.90
14877;DHT22;69691;48.172;17.070;2023-07-20T11:47:09;31.30;40.50
14877;DHT22;69691;48.172;17.070;2023-07-20T11:49:41;31.10;41.10
14877;DHT22;69691;48.172;17.070;2023-07-20T11:52:15;31.00;41.40
14877;DHT22;69691;48.172;17.070;2023-07-20T11:54:43;30.90;40.50
14877;DHT22;69691;48.172;17.070;2023-07-20T11:57:19;30.80;40.30
14877;DHT22;69691;48.172;17.070;2023-07-20T12:00:01;30.80;40.80
14877;DHT22;69691;48.172;17.070;2023-07-20T12:02:38;30.80;40.20
14877;DHT22;69691;48.172;17.070;2023-07-20T12:05:07;30.80;40.30
14877;DHT22;69691;48.172;17.070;2023-07-20T12:07:36;31.00;40.10
14877;DHT22;69691;48.172;17.070;2023-07-20T12:10:10;31.20;39.90
14877;DHT22;69691;48.172;17.070;2023-07-20T12:12:40;31.50;39.10
14877;DHT22;69691;48.172;17.070;2023-07-20T12:15:19;31.80;38.70
14877;DHT22;69691;48.172;17.070;2023-07-20T12:17:49;32.00;38.40
14877;DHT22;69691;48.172;17.070;2023-07-20T12:20:26;31.90;38.30
14877;DHT22;69691;48.172;17.070;2023-07-20T12:23:00;31.80;38.40
14877;DHT22;69691;48.172;17.070;2023-07-20T12:25:40;31.50;38.60
14877;DHT22;69691;48.172;17.070;2023-07-20T12:28:11;31.30;39.40
14877;DHT22;69691;48.172;17.070;2023-07-20T12:30:42;31.00;39.70
14877;DHT22;69691;48.172;17.070;2023-07-20T12:33:12;30.80;40.10
14877;DHT22;69691;48.172;17.070;2023-07-20T12:35:41;30.80;40.10
14877;DHT22;69691;48.172;17.070;2023-07-20T12:38:08;30.70;40.30
14877;DHT22;69691;48.172;17.070;2023-07-20T12:40:34;30.60;40.40
14877;DHT22;69691;48.172;17.070;2023-07-20T12:43:01;30.60;40.60
14877;DHT22;69691;48.172;17.070;2023-07-20T12:45:27;30.60;41.10
14877;DHT22;69691;48.172;17.070;2023-07-20T12:47:53;30.60;41.40
14877;DHT22;69691;48.172;17.070;2023-07-20T12:50:19;30.50;41.40
14877;DHT22;69691;48.172;17.070;2023-07-20T12:52:45;30.50;41.50
14877;DHT22;69691;48.172;17.070;2023-07-20T12:55:11;30.50;41.60
14877;DHT22;69691;48.172;17.070;2023-07-20T12:57:37;30.50;41.60
14877;DHT22;69691;48.172;17.070;2023-07-20T13:00:05;30.40;41.50
14877;DHT22;69691;48.172;17.070;2023-07-20T13:02:33;30.40;41.40
14877;DHT22;69691;48.172;17.070;2023-07-20T13:04:59;30.30;41.30
14877;DHT22;69691;48.172;17.070;2023-07-20T13:07:33;30.30;40.60
14877;DHT22;69691;48.172;17.070;2023-07-20T13:10:00;30.40;40.50
14877;DHT22;69691;48.172;17.070;2023-07-20T13:12:27;30.40;39.90
14877;DHT22;69691;48.172;17.070;2023-07-20T13:14:55;30.50;40.00
14877;DHT22;69691;48.172;17.070;2023-07-20T13:17:24;30.60;39.70
14877;DHT22;69691;48.172;17.070;2023-07-20T13:19:50;30.70;39.80
14877;DHT22;69691;48.172;17.070;2023-07-20T13:22:16;30.90;39.60
14877;DHT22;69691;48.172;17.070;2023-07-20T13:24:44;31.10;39.80
14877;DHT22;69691;48.172;17.070;2023-07-20T13:27:15;31.30;39.40
14877;DHT22;69691;48.172;17.070;2023-07-20T13:29:41;31.50;39.00
14877;DHT22;69691;48.172;17.070;2023-07-20T13:32:07;31.70;38.70
14877;DHT22;69691;48.172;17.070;2023-07-20T13:34:33;31.80;38.70
14877;DHT22;69691;48.172;17.070;2023-07-20T13:37:00;31.90;38.20
14877;DHT22;69691;48.172;17.070;2023-07-20T13:39:26;32.10;38.00
14877;DHT22;69691;48.172;17.070;2023-07-20T13:41:53;32.10;37.20
14877;DHT22;69691;48.172;17.070;2023-07-20T13:44:22;32.10;36.80
14877;DHT22;69691;48.172;17.070;2023-07-20T13:46:49;32.00;37.10
14877;DHT22;69691;48.172;17.070;2023-07-20T13:49:15;31.90;37.60
14877;DHT22;69691;48.172;17.070;2023-07-20T13:51:42;31.80;38.00
14877;DHT22;69691;48.172;17.070;2023-07-20T13:54:08;31.60;37.90
14877;DHT22;69691;48.172;17.070;2023-07-20T13:56:34;31.40;38.00
14877;DHT22;69691;48.172;17.070;2023-07-20T13:59:00;31.30;38.20
14877;DHT22;69691;48.172;17.070;2023-07-20T14:01:26;31.10;38.30
14877;DHT22;69691;48.172;17.070;2023-07-20T14:03:55;31.00;38.50
14877;DHT22;69691;48.172;17.070;2023-07-20T14:06:21;30.80;38.90
14877;DHT22;69691;48.172;17.070;2023-07-20T14:08:47;30.70;39.20
14877;DHT22;69691;48.172;17.070;2023-07-20T14:11:14;30.60;39.50
14877;DHT22;69691;48.172;17.070;2023-07-20T14:13:40;30.50;39.50
14877;DHT22;69691;48.172;17.070;2023-07-20T14:16:06;30.30;39.40
14877;DHT22;69691;48.172;17.070;2023-07-20T14:18:32;30.30;39.70
14877;DHT22;69691;48.172;17.070;2023-07-20T14:20:58;30.20;40.00
14877;DHT22;69691;48.172;17.070;2023-07-20T14:23:24;30.10;40.30
14877;DHT22;69691;48.172;17.070;2023-07-20T14:25:50;30.10;39.80
14877;DHT22;69691;48.172;17.070;2023-07-20T14:28:16;30.00;39.60
14877;DHT22;69691;48.172;17.070;2023-07-20T14:30:42;30.00;39.30
14877;DHT22;69691;48.172;17.070;2023-07-20T14:33:08;30.00;39.50
14877;DHT22;69691;48.172;17.070;2023-07-20T14:35:34;29.90;40.00
14877;DHT22;69691;48.172;17.070;2023-07-20T14:38:00;29.80;40.40
14877;DHT22;69691;48.172;17.070;2023-07-20T14:40:27;29.80;40.70
14877;DHT22;69691;48.172;17.070;2023-07-20T14:42:52;29.80;40.60
14877;DHT22;69691;48.172;17.070;2023-07-20T14:45:19;29.80;40.30
14877;DHT22;69691;48.172;17.070;2023-07-20T14:47:45;29.70;40.20
14877;DHT22;69691;48.172;17.070;2023-07-20T14:50:11;29.60;40.30
14877;DHT22;69691;48.172;17.070;2023-07-20T14:52:37;29.70;40.30
14877;DHT22;69691;48.172;17.070;2023-07-20T14:55:03;29.60;40.00
14877;DHT22;69691;48.172;17.070;2023-07-20T14:57:30;29.60;40.00
14877;DHT22;69691;48.172;17.070;2023-07-20T14:59:55;29.60;40.20
14877;DHT22;69691;48.172;17.070;2023-07-20T15:02:21;29.50;40.30
14877;DHT22;69691;48.172;17.070;2023-07-20T15:04:49;29.60;40.60
14877;DHT22;69691;48.172;17.070;2023-07-20T15:07:20;29.60;40.50
14877;DHT22;69691;48.172;17.070;2023-07-20T15:09:47;29.60;40.40
14877;DHT22;69691;48.172;17.070;2023-07-20T15:12:13;29.50;40.30
14877;DHT22;69691;48.172;17.070;2023-07-20T15:14:41;29.50;40.40
14877;DHT22;69691;48.172;17.070;2023-07-20T15:17:08;29.40;40.30
14877;DHT22;69691;48.172;17.070;2023-07-20T15:19:35;29.40;40.30
14877;DHT22;69691;48.172;17.070;2023-07-20T15:22:04;29.40;40.40
14877;DHT22;69691;48.172;17.070;2023-07-20T15:24:32;29.40;40.70
14877;DHT22;69691;48.172;17.070;2023-07-20T15:27:00;29.40;40.60
14877;DHT22;69691;48.172;17.070;2023-07-20T15:29:26;29.60;40.40
14877;DHT22;69691;48.172;17.070;2023-07-20T15:31:52;29.70;40.40
14877;DHT22;69691;48.172;17.070;2023-07-20T15:34:18;29.80;40.10